createdAt,value
2023-05-10T00:00:11.022Z,78.19
2023-05-10T00:02:37.583Z,77.59
2023-05-10T00:05:05.427Z,77.19
2023-05-10T00:07:31.778Z,77.44
2023-05-10T00:09:58.128Z,77.54
2023-05-10T00:12:24.464Z,77.51
2023-05-10T00:14:51.012Z,78.98
2023-05-10T00:17:17.752Z,78.11
2023-05-10T00:19:44.132Z,78.21
2023-05-10T00:22:10.504Z,78.04
2023-05-10T00:24:36.843Z,78.04
2023-05-10T00:27:03.468Z,77.68
2023-05-10T00:29:32.106Z,77.16
2023-05-10T00:31:59.482Z,77.61
2023-05-10T00:34:25.944Z,76.78
2023-05-10T00:36:52.327Z,77.21
2023-05-10T00:39:22.422Z,76.95
2023-05-10T00:41:48.779Z,76.59
2023-05-10T00:44:15.159Z,76.22
2023-05-10T00:46:41.495Z,77.05
2023-05-10T00:49:07.909Z,76.73
2023-05-10T00:51:34.707Z,76.95
2023-05-10T00:54:01.083Z,76.33
2023-05-10T00:56:27.635Z,76.06
2023-05-10T00:58:54.197Z,75.79
2023-05-10T01:01:20.582Z,75.89
2023-05-10T01:03:46.922Z,75.83
2023-05-10T01:06:14.604Z,75.46
2023-05-10T01:08:41.496Z,75.55
2023-05-10T01:11:07.874Z,75.46
2023-05-10T01:13:34.295Z,76.03
2023-05-10T01:18:40.924Z,75.75
2023-05-10T01:21:07.331Z,76.33
2023-05-10T01:23:33.715Z,75.80
2023-05-10T01:26:00.231Z,76.03
2023-05-10T01:28:27.612Z,75.96
2023-05-10T01:30:53.992Z,76.04
2023-05-10T01:33:20.567Z,76.05
2023-05-10T01:35:47.161Z,74.55
2023-05-10T01:38:13.537Z,75.25
2023-05-10T01:40:39.918Z,75.93
2023-05-10T01:43:06.368Z,75.67
2023-05-10T01:45:33.812Z,74.82
2023-05-10T01:48:00.427Z,75.82
2023-05-10T01:50:26.812Z,75.98
2023-05-10T01:52:53.149Z,76.73
2023-05-10T01:55:19.498Z,76.67
2023-05-10T01:57:45.868Z,76.73
2023-05-10T02:00:14.969Z,76.25
2023-05-10T02:02:41.569Z,76.54
2023-05-10T02:05:07.999Z,75.52
2023-05-10T02:07:37.395Z,75.32
2023-05-10T02:10:03.771Z,75.71
2023-05-10T02:12:30.160Z,75.03
2023-05-10T02:14:56.524Z,74.96
2023-05-10T02:17:23.137Z,75.73
2023-05-10T02:19:51.651Z,75.96
2023-05-10T02:22:18.078Z,76.53
2023-05-10T02:24:44.435Z,76.22
2023-05-10T02:27:10.840Z,75.92
2023-05-10T02:29:39.618Z,75.66
2023-05-10T02:32:06.724Z,76.62
2023-05-10T02:34:33.180Z,77.09
2023-05-10T02:37:00.245Z,77.83
2023-05-10T02:39:28.917Z,77.63
2023-05-10T02:41:55.443Z,77.55
2023-05-10T02:44:21.816Z,77.93
2023-05-10T02:46:48.197Z,77.06
2023-05-10T02:49:16.842Z,77.63
2023-05-10T02:51:43.427Z,77.26
2023-05-10T02:54:09.811Z,77.59
2023-05-10T02:56:37.186Z,76.90
2023-05-10T02:59:04.033Z,76.27
2023-05-10T03:01:30.625Z,75.89
2023-05-10T03:03:59.314Z,75.12
2023-05-10T03:06:26.854Z,75.65
2023-05-10T03:08:53.605Z,75.52
2023-05-10T03:11:22.538Z,75.89
2023-05-10T03:13:48.904Z,75.62
2023-05-10T03:16:15.545Z,75.78
2023-05-10T03:18:43.958Z,76.57
2023-05-10T03:21:10.465Z,76.66
2023-05-10T03:23:36.950Z,76.21
2023-05-10T03:26:11.463Z,75.81
2023-05-10T03:28:38.861Z,76.21
2023-05-10T03:31:05.318Z,75.85
2023-05-10T03:33:31.789Z,75.08
2023-05-10T03:35:58.674Z,75.40
2023-05-10T03:38:25.121Z,74.96
2023-05-10T03:40:53.859Z,73.78
2023-05-10T03:43:21.263Z,73.32
2023-05-10T03:45:51.033Z,73.23
2023-05-10T03:48:19.711Z,73.67
2023-05-10T03:50:48.856Z,74.20
2023-05-10T03:53:15.388Z,74.11
2023-05-10T03:55:41.811Z,75.46
2023-05-10T03:58:08.281Z,75.94
2023-05-10T04:00:34.681Z,76.06
2023-05-10T04:03:01.480Z,76.49
2023-05-10T04:05:30.710Z,76.17
2023-05-10T04:07:57.071Z,76.08
2023-05-10T04:10:23.615Z,75.26
2023-05-10T04:12:49.982Z,75.52
2023-05-10T04:15:20.752Z,76.44
2023-05-10T04:17:48.170Z,76.41
2023-05-10T04:20:14.984Z,75.91
2023-05-10T04:22:41.491Z,75.60
2023-05-10T04:25:08.376Z,75.98
2023-05-10T04:27:35.063Z,76.72
2023-05-10T04:30:03.886Z,76.26
2023-05-10T04:32:35.194Z,75.60
2023-05-10T04:35:01.668Z,76.44
2023-05-10T04:37:28.480Z,76.36
2023-05-10T04:39:54.860Z,76.26
2023-05-10T04:42:21.267Z,76.29
2023-05-10T04:44:47.773Z,76.75
2023-05-10T04:47:15.106Z,76.34
2023-05-10T04:49:41.463Z,76.57
2023-05-10T04:52:07.953Z,75.18
2023-05-10T04:54:36.651Z,75.96
2023-05-10T04:57:04.025Z,75.55
2023-05-10T04:59:33.543Z,75.48
2023-05-10T05:02:00.014Z,75.30
2023-05-10T05:04:26.869Z,76.00
2023-05-10T05:06:53.979Z,75.64
2023-05-10T05:09:22.786Z,76.05
2023-05-10T05:11:49.491Z,75.78
2023-05-10T05:14:16.455Z,75.48
2023-05-10T05:16:42.886Z,76.07
2023-05-10T05:19:10.411Z,76.17
2023-05-10T05:21:36.753Z,76.04
2023-05-10T05:24:08.253Z,75.78
2023-05-10T05:26:34.953Z,76.96
2023-05-10T05:29:05.445Z,76.81
2023-05-10T05:31:32.111Z,76.37
2023-05-10T05:33:59.221Z,76.71
2023-05-10T05:36:25.945Z,77.49
2023-05-10T05:38:52.539Z,77.37
2023-05-10T05:41:19.186Z,76.97
2023-05-10T05:43:46.019Z,77.63
2023-05-10T05:46:12.533Z,76.72
2023-05-10T05:48:43.493Z,76.78
2023-05-10T05:51:09.988Z,76.94
2023-05-10T05:53:36.410Z,77.51
2023-05-10T05:56:03.115Z,77.08
2023-05-10T05:58:37.129Z,75.99
2023-05-10T06:01:03.666Z,74.80
2023-05-10T06:03:30.710Z,75.42
2023-05-10T06:05:58.613Z,74.81
2023-05-10T06:08:25.201Z,75.06
2023-05-10T06:10:51.548Z,74.39
2023-05-10T06:13:18.385Z,74.32
2023-05-10T06:15:47.464Z,74.30
2023-05-10T06:18:13.896Z,73.56
2023-05-10T06:20:40.293Z,72.80
2023-05-10T06:23:07.241Z,72.75
2023-05-10T06:25:33.798Z,72.42
2023-05-10T06:28:00.158Z,72.79
2023-05-10T06:30:27.062Z,72.17
2023-05-10T06:32:53.507Z,70.57
2023-05-10T06:35:20.011Z,73.37
2023-05-10T06:37:49.509Z,72.90
2023-05-10T06:40:15.961Z,72.08
2023-05-10T06:42:42.336Z,72.10
2023-05-10T06:45:08.814Z,69.25
2023-05-10T06:47:37.933Z,70.43
2023-05-10T06:50:05.470Z,71.43
2023-05-10T06:52:32.031Z,71.14
2023-05-10T06:54:58.624Z,71.44
2023-05-10T07:00:03.902Z,69.97
2023-05-10T07:02:30.345Z,69.96
2023-05-10T07:04:57.979Z,69.56
2023-05-10T07:07:25.733Z,69.99
2023-05-10T07:09:54.593Z,69.36
2023-05-10T07:12:20.997Z,69.03
2023-05-10T07:14:47.386Z,69.00
2023-05-10T07:17:13.801Z,68.78
2023-05-10T07:19:40.395Z,68.71
2023-05-10T07:22:06.793Z,67.03
2023-05-10T07:24:35.539Z,68.41
2023-05-10T07:27:02.180Z,66.00
2023-05-10T07:29:29.312Z,65.26
2023-05-10T07:31:58.504Z,67.02
2023-05-10T07:34:25.428Z,67.25
2023-05-10T07:36:51.937Z,68.93
2023-05-10T07:39:26.501Z,67.56
2023-05-10T07:41:54.120Z,66.21
2023-05-10T07:44:20.461Z,67.11
2023-05-10T07:46:48.216Z,67.26
2023-05-10T07:49:15.319Z,67.77
2023-05-10T07:51:42.642Z,66.82
2023-05-10T07:54:09.382Z,67.11
2023-05-10T07:56:35.863Z,68.06
2023-05-10T07:59:02.331Z,68.67
2023-05-10T08:01:29.333Z,68.35
2023-05-10T08:03:55.758Z,67.65
2023-05-10T08:06:22.718Z,68.13
2023-05-10T08:08:49.072Z,68.70
2023-05-10T08:11:15.556Z,68.93
2023-05-10T08:13:49.266Z,68.79
2023-05-10T08:16:15.658Z,69.10
2023-05-10T08:18:43.279Z,69.57
2023-05-10T08:21:09.845Z,69.95
2023-05-10T08:23:36.432Z,69.88
2023-05-10T08:26:04.206Z,69.86
2023-05-10T08:28:30.598Z,69.03
2023-05-10T08:31:01.335Z,68.97
2023-05-10T08:33:29.027Z,68.29
2023-05-10T08:35:55.417Z,70.27
2023-05-10T08:38:21.888Z,68.89
2023-05-10T08:40:48.265Z,69.16
2023-05-10T08:43:14.632Z,69.54
2023-05-10T08:45:43.779Z,70.81
2023-05-10T08:48:10.226Z,71.51
2023-05-10T08:50:36.641Z,69.67
2023-05-10T08:53:02.986Z,69.79
2023-05-10T08:55:29.372Z,70.54
2023-05-10T08:57:56.967Z,70.67
2023-05-10T09:00:23.303Z,72.62
2023-05-10T09:02:52.575Z,71.80
2023-05-10T09:05:19.666Z,70.44
2023-05-10T09:07:46.311Z,69.43
2023-05-10T09:10:12.735Z,69.91
2023-05-10T09:12:40.037Z,69.97
2023-05-10T09:15:06.372Z,70.51
2023-05-10T09:17:35.060Z,69.43
2023-05-10T09:20:01.454Z,69.76
2023-05-10T09:22:27.895Z,69.37
2023-05-10T09:24:54.381Z,69.60
2023-05-10T09:27:21.002Z,69.37
2023-05-10T09:29:48.721Z,68.83
2023-05-10T09:32:15.412Z,67.81
2023-05-10T09:34:41.814Z,68.37
2023-05-10T09:37:08.176Z,69.21
2023-05-10T09:39:36.106Z,67.30
2023-05-10T09:42:02.587Z,68.20
2023-05-10T09:44:28.948Z,68.46
2023-05-10T09:46:55.519Z,67.07
2023-05-10T09:49:21.967Z,65.44
2023-05-10T09:51:48.559Z,66.74
2023-05-10T09:54:15.296Z,67.17
2023-05-10T09:56:41.818Z,66.57
2023-05-10T09:59:09.910Z,67.80
2023-05-10T10:01:37.333Z,67.85
2023-05-10T10:04:06.555Z,66.44
2023-05-10T10:06:35.283Z,66.31
2023-05-10T10:09:04.742Z,65.40
2023-05-10T10:11:32.385Z,64.25
2023-05-10T10:14:00.367Z,65.51
2023-05-10T10:16:27.334Z,65.75
2023-05-10T10:18:54.136Z,66.04
2023-05-10T10:21:20.663Z,64.59
2023-05-10T10:23:47.083Z,66.13
2023-05-10T10:26:14.481Z,64.42
2023-05-10T10:28:40.897Z,65.05
2023-05-10T10:31:07.910Z,64.88
2023-05-10T10:33:34.409Z,64.32
2023-05-10T10:36:00.826Z,64.91
2023-05-10T10:38:27.333Z,65.38
2023-05-10T10:40:53.719Z,66.74
2023-05-10T10:43:20.213Z,66.33
2023-05-10T10:45:47.100Z,65.79
2023-05-10T10:48:14.735Z,67.46
2023-05-10T10:50:41.109Z,67.07
2023-05-10T10:53:07.576Z,66.76
2023-05-10T10:55:33.995Z,66.51
2023-05-10T10:58:00.705Z,65.52
2023-05-10T11:00:27.103Z,66.20
2023-05-10T11:02:53.737Z,64.79
2023-05-10T11:05:20.293Z,63.43
2023-05-10T11:07:46.627Z,62.72
2023-05-10T11:10:13.184Z,62.63
2023-05-10T11:12:39.733Z,63.28
2023-05-10T11:15:06.068Z,60.60
2023-05-10T11:17:39.496Z,61.57
2023-05-10T11:20:06.087Z,61.54
2023-05-10T11:22:33.493Z,61.60
2023-05-10T11:24:59.842Z,62.26
2023-05-10T11:27:26.180Z,60.78
2023-05-10T11:29:52.535Z,58.65
2023-05-10T11:32:20.964Z,58.29
2023-05-10T11:34:47.308Z,58.08
2023-05-10T11:37:15.872Z,58.29
2023-05-10T11:39:42.220Z,57.83
2023-05-10T11:42:08.610Z,57.35
2023-05-10T11:44:36.171Z,56.57
2023-05-10T11:47:02.634Z,55.08
2023-05-10T11:49:29.259Z,56.59
2023-05-10T11:51:55.631Z,55.98
2023-05-10T11:57:02.552Z,57.69
2023-05-10T11:59:28.894Z,55.30
2023-05-10T12:01:55.478Z,55.15
2023-05-10T12:04:21.935Z,56.46
2023-05-10T12:06:50.685Z,56.73
2023-05-10T12:09:23.067Z,57.56
2023-05-10T12:11:58.235Z,58.51
2023-05-10T12:14:24.672Z,56.78
2023-05-10T12:16:51.044Z,56.74
2023-05-10T12:19:19.561Z,57.58
2023-05-10T12:21:45.913Z,54.90
2023-05-10T12:24:12.267Z,56.08
2023-05-10T12:29:22.637Z,53.62
2023-05-10T12:31:48.966Z,52.96
2023-05-10T12:34:15.350Z,55.51
2023-05-10T12:36:41.627Z,55.44
2023-05-10T12:39:08.270Z,57.01
2023-05-10T12:41:43.631Z,58.90
2023-05-10T12:44:11.098Z,59.48
2023-05-10T12:46:37.644Z,59.44
2023-05-10T12:49:09.189Z,60.86
2023-05-10T12:51:36.129Z,62.42
2023-05-10T12:54:02.722Z,60.79
2023-05-10T12:56:29.492Z,61.37
2023-05-10T12:58:58.200Z,60.81
2023-05-10T13:01:25.931Z,61.20
2023-05-10T13:03:52.422Z,61.64
2023-05-10T13:06:19.013Z,59.73
2023-05-10T13:08:45.624Z,60.55
2023-05-10T13:11:13.189Z,61.60
2023-05-10T13:13:39.670Z,60.82
2023-05-10T13:16:07.209Z,59.69
2023-05-10T13:18:34.546Z,61.02
2023-05-10T13:21:00.957Z,61.15
2023-05-10T13:23:28.541Z,60.88
2023-05-10T13:25:55.058Z,61.90
2023-05-10T13:28:21.382Z,62.22
2023-05-10T13:30:47.707Z,60.25
2023-05-10T13:33:14.042Z,61.55
2023-05-10T13:35:41.422Z,61.13
2023-05-10T13:38:07.749Z,59.34
2023-05-10T13:40:34.090Z,59.48
2023-05-10T13:43:00.396Z,59.36
2023-05-10T13:45:26.958Z,56.91
2023-05-10T13:47:53.335Z,57.47
2023-05-10T13:50:19.714Z,57.07
2023-05-10T13:52:46.061Z,55.88
2023-05-10T13:55:12.606Z,55.31
2023-05-10T13:57:39.085Z,54.35
2023-05-10T14:00:05.437Z,52.63
2023-05-10T14:02:31.786Z,52.43
2023-05-10T14:04:58.254Z,54.13
2023-05-10T14:07:24.607Z,51.95
2023-05-10T14:09:50.943Z,51.02
2023-05-10T14:12:17.308Z,53.59
2023-05-10T14:14:43.851Z,51.92
2023-05-10T14:17:12.037Z,52.38
2023-05-10T14:19:38.753Z,53.84
2023-05-10T14:22:05.046Z,53.47
2023-05-10T14:24:31.666Z,53.47
2023-05-10T14:26:57.951Z,54.00
2023-05-10T14:29:24.233Z,52.74
2023-05-10T14:31:50.551Z,51.22
2023-05-10T14:34:16.974Z,51.77
2023-05-10T14:36:43.296Z,48.27
2023-05-10T14:39:09.577Z,47.60
2023-05-10T14:41:35.932Z,47.46
2023-05-10T14:44:02.240Z,48.79
2023-05-10T14:46:28.583Z,48.59
2023-05-10T14:48:55.115Z,50.41
2023-05-10T14:51:21.446Z,50.72
2023-05-10T14:53:48.789Z,53.05
2023-05-10T14:56:17.372Z,52.18
2023-05-10T14:58:43.660Z,54.73
2023-05-10T15:01:10.004Z,55.19
2023-05-10T15:03:39.454Z,52.92
2023-05-10T15:06:06.272Z,55.21
2023-05-10T15:08:32.624Z,54.63
2023-05-10T15:10:58.917Z,54.69
2023-05-10T15:13:25.208Z,55.05
2023-05-10T15:15:51.590Z,53.47
2023-05-10T15:18:25.332Z,54.61
2023-05-10T15:20:51.675Z,54.07
2023-05-10T15:23:17.988Z,54.47
2023-05-10T15:25:45.594Z,55.74
2023-05-10T15:28:12.897Z,56.49
2023-05-10T15:30:41.753Z,54.33
2023-05-10T15:33:08.139Z,57.32
2023-05-10T15:35:34.480Z,57.19
2023-05-10T15:38:00.760Z,57.32
2023-05-10T15:40:29.384Z,59.65
2023-05-10T15:42:55.917Z,57.87
2023-05-10T15:45:22.686Z,59.36
2023-05-10T15:47:49.006Z,57.97
2023-05-10T15:50:15.613Z,57.26
2023-05-10T15:52:44.256Z,56.93
2023-05-10T15:55:10.821Z,57.83
2023-05-10T15:57:38.373Z,58.07
2023-05-10T16:00:07.174Z,58.21
2023-05-10T16:02:33.779Z,59.11
2023-05-10T16:05:01.327Z,57.21
2023-05-10T16:07:28.108Z,56.58
2023-05-10T16:09:58.590Z,57.65
2023-05-10T16:12:24.990Z,56.18
2023-05-10T16:14:58.644Z,56.56
2023-05-10T16:17:26.547Z,56.64
2023-05-10T16:19:53.928Z,56.09
2023-05-10T16:22:20.895Z,58.35
2023-05-10T16:24:47.937Z,56.85
2023-05-10T16:27:14.926Z,57.73
2023-05-10T16:29:41.981Z,56.97
2023-05-10T16:32:08.823Z,58.47
2023-05-10T16:34:35.455Z,58.66
2023-05-10T16:37:02.324Z,59.38
2023-05-10T16:39:28.923Z,56.44
2023-05-10T16:41:56.601Z,56.64
2023-05-10T16:44:26.088Z,57.92
2023-05-10T16:46:52.821Z,57.06
2023-05-10T16:49:19.477Z,56.52
2023-05-10T16:51:46.297Z,57.28
2023-05-10T16:57:03.561Z,58.25
2023-05-10T16:59:29.976Z,58.70
2023-05-10T17:01:56.405Z,57.75
2023-05-10T17:04:22.892Z,59.68
2023-05-10T17:06:49.775Z,59.46
2023-05-10T17:09:16.461Z,59.17
2023-05-10T17:11:42.849Z,59.18
2023-05-10T17:14:10.304Z,59.88
2023-05-10T17:16:36.969Z,60.31
2023-05-10T17:19:05.677Z,59.72
2023-05-10T17:21:33.303Z,62.94
2023-05-10T17:23:59.822Z,62.95
2023-05-10T17:26:27.537Z,67.61
2023-05-10T17:28:54.111Z,66.14
2023-05-10T17:31:20.542Z,67.90
2023-05-10T17:33:47.956Z,67.79
2023-05-10T17:36:14.784Z,67.60
2023-05-10T17:38:43.488Z,69.78
2023-05-10T17:41:09.886Z,69.42
2023-05-10T17:43:36.504Z,69.93
2023-05-10T17:46:02.951Z,69.36
2023-05-10T17:48:29.832Z,70.09
2023-05-10T17:50:56.523Z,70.25
2023-05-10T17:53:23.066Z,69.12
2023-05-10T17:55:51.501Z,69.04
2023-05-10T17:58:17.989Z,69.02
2023-05-10T18:00:44.586Z,67.94
2023-05-10T18:03:11.266Z,67.23
2023-05-10T18:05:37.771Z,67.19
2023-05-10T18:08:04.206Z,67.30
2023-05-10T18:10:30.630Z,68.88
2023-05-10T18:12:57.050Z,69.05
2023-05-10T18:15:23.413Z,70.22
2023-05-10T18:17:49.877Z,70.82
2023-05-10T18:20:18.400Z,69.95
2023-05-10T18:22:45.073Z,70.91
2023-05-10T18:25:11.828Z,70.19
2023-05-10T18:27:38.571Z,70.81
2023-05-10T18:30:05.161Z,69.85
2023-05-10T18:32:31.824Z,70.81
2023-05-10T18:34:58.680Z,70.48
2023-05-10T18:37:25.430Z,71.28
2023-05-10T18:39:51.800Z,70.79
2023-05-10T18:42:18.316Z,71.10
2023-05-10T18:44:44.663Z,71.34
2023-05-10T18:47:10.990Z,72.95
2023-05-10T18:49:37.378Z,72.61
2023-05-10T18:52:03.732Z,72.44
2023-05-10T18:54:30.080Z,71.12
2023-05-10T18:56:56.402Z,72.15
2023-05-10T18:59:22.728Z,72.77
2023-05-10T19:01:51.092Z,73.29
2023-05-10T19:04:17.678Z,73.03
2023-05-10T19:06:44.289Z,72.40
2023-05-10T19:09:11.401Z,72.30
2023-05-10T19:11:37.851Z,73.03
2023-05-10T19:14:04.608Z,72.57
2023-05-10T19:16:31.223Z,71.72
2023-05-10T19:18:57.702Z,72.41
2023-05-10T19:21:24.104Z,73.21
2023-05-10T19:23:53.786Z,72.12
2023-05-10T19:26:20.178Z,72.92
2023-05-10T19:28:47.178Z,72.04
2023-05-10T19:31:13.603Z,71.36
2023-05-10T19:33:40.776Z,71.24
2023-05-10T19:36:07.741Z,70.30
2023-05-10T19:38:34.363Z,70.37
2023-05-10T19:41:01.132Z,71.63
2023-05-10T19:43:31.230Z,71.56
2023-05-10T19:45:59.200Z,70.81
2023-05-10T19:48:25.910Z,72.72
2023-05-10T19:50:52.552Z,73.37
2023-05-10T19:53:19.856Z,72.88
2023-05-10T19:55:46.496Z,73.03
2023-05-10T19:58:15.262Z,73.04
2023-05-10T20:00:41.695Z,75.34
2023-05-10T20:03:09.307Z,74.90
2023-05-10T20:05:36.007Z,75.75
2023-05-10T20:08:02.391Z,76.56
2023-05-10T20:10:31.597Z,76.35
2023-05-10T20:12:58.175Z,76.23
2023-05-10T20:15:25.404Z,75.78
2023-05-10T20:17:52.901Z,75.98
2023-05-10T20:20:19.586Z,76.70
2023-05-10T20:22:46.135Z,76.67
2023-05-10T20:25:12.855Z,76.66
2023-05-10T20:27:41.296Z,76.26
2023-05-10T20:30:08.743Z,75.96
2023-05-10T20:32:36.183Z,75.74
2023-05-10T20:35:07.165Z,75.34
2023-05-10T20:37:33.557Z,75.23
2023-05-10T20:39:59.946Z,75.48
2023-05-10T20:42:26.700Z,75.67
2023-05-10T20:44:53.855Z,75.42
2023-05-10T20:47:20.260Z,75.35
2023-05-10T20:49:50.814Z,75.29
2023-05-10T20:52:17.716Z,74.83
2023-05-10T20:54:46.406Z,75.25
2023-05-10T20:57:20.179Z,75.21
2023-05-10T20:59:46.574Z,74.54
2023-05-10T21:02:13.059Z,74.68
2023-05-10T21:07:19.629Z,76.03
2023-05-10T21:09:46.423Z,76.12
2023-05-10T21:12:12.771Z,76.14
2023-05-10T21:14:39.224Z,77.20
2023-05-10T21:17:05.613Z,76.80
2023-05-10T21:19:32.815Z,76.19
2023-05-10T21:22:02.267Z,76.41
2023-05-10T21:24:34.101Z,76.31
2023-05-10T21:27:00.668Z,75.75
2023-05-10T21:29:28.236Z,75.92
2023-05-10T21:31:57.023Z,75.81
2023-05-10T21:34:30.810Z,75.96
2023-05-10T21:36:57.258Z,75.29
2023-05-10T21:39:25.894Z,74.95
2023-05-10T21:41:56.928Z,74.95
2023-05-10T21:44:24.481Z,74.90
2023-05-10T21:46:51.441Z,75.73
2023-05-10T21:49:17.993Z,75.57
2023-05-10T21:51:44.474Z,76.22
2023-05-10T21:54:11.416Z,76.21
2023-05-10T21:56:38.187Z,76.05
2023-05-10T21:59:05.288Z,75.62
2023-05-10T22:01:36.141Z,75.22
2023-05-10T22:04:09.831Z,75.36
2023-05-10T22:06:39.246Z,75.56
2023-05-10T22:09:09.797Z,75.82
2023-05-10T22:11:37.569Z,76.12
2023-05-10T22:14:06.453Z,76.63
2023-05-10T22:16:33.213Z,76.45
2023-05-10T22:18:59.900Z,76.99
2023-05-10T22:21:26.350Z,76.95
2023-05-10T22:24:04.138Z,76.59
2023-05-10T22:26:33.304Z,76.68
2023-05-10T22:29:03.478Z,76.87
2023-05-10T22:31:30.191Z,77.70
2023-05-10T22:33:58.112Z,77.58
2023-05-10T22:36:24.660Z,77.77
2023-05-10T22:38:51.259Z,77.24
2023-05-10T22:41:18.688Z,77.06
2023-05-10T22:43:45.530Z,77.41
2023-05-10T22:46:11.968Z,77.18
2023-05-10T22:48:38.732Z,77.00
2023-05-10T22:51:05.255Z,76.99
2023-05-10T22:53:31.741Z,77.47
2023-05-10T22:55:58.229Z,77.42
2023-05-10T22:58:24.590Z,77.62
2023-05-10T23:00:51.632Z,77.49
2023-05-10T23:03:18.377Z,77.61
2023-05-10T23:05:46.700Z,78.10
2023-05-10T23:08:13.161Z,77.42
2023-05-10T23:10:39.598Z,78.22
2023-05-10T23:13:06.371Z,78.45
2023-05-10T23:15:40.167Z,78.30
2023-05-10T23:18:06.730Z,77.96
2023-05-10T23:20:33.311Z,78.16
2023-05-10T23:22:59.770Z,78.20
2023-05-10T23:25:26.122Z,78.01
2023-05-10T23:27:52.726Z,77.67
2023-05-10T23:30:19.328Z,77.28
2023-05-10T23:32:50.033Z,76.65
2023-05-10T23:35:16.394Z,76.85
2023-05-10T23:37:44.057Z,76.89
2023-05-10T23:40:10.790Z,77.16
2023-05-10T23:42:37.198Z,77.42
2023-05-10T23:45:04.938Z,76.78
2023-05-10T23:47:31.365Z,76.71
2023-05-10T23:49:57.746Z,75.98
2023-05-10T23:52:25.356Z,76.42
2023-05-10T23:54:52.266Z,77.06
2023-05-10T23:57:20.007Z,77.56
2023-05-10T23:59:47.213Z,77.92
